createdAt,value
2023-04-27T00:00:36.494Z,7.2324
2023-04-27T00:01:44.558Z,7.0919
2023-04-27T00:02:52.801Z,7.4426
2023-04-27T00:04:00.853Z,7.2954
2023-04-27T00:05:09.095Z,7.8584
2023-04-27T00:06:16.978Z,7.8996
2023-04-27T00:07:24.910Z,7.4491
2023-04-27T00:08:32.844Z,7.3578
2023-04-27T00:09:40.891Z,7.4692
2023-04-27T00:10:48.964Z,7.6571
2023-04-27T00:11:57.180Z,8.2250
2023-04-27T00:13:05.179Z,8.0493
2023-04-27T00:14:13.277Z,8.2409
2023-04-27T00:15:21.341Z,8.3320
2023-04-27T00:16:29.434Z,8.2998
2023-04-27T00:17:37.506Z,8.7300
2023-04-27T00:18:45.499Z,8.3057
2023-04-27T00:19:53.561Z,8.2917
2023-04-27T00:21:01.665Z,8.6269
2023-04-27T00:22:09.735Z,8.3862
2023-04-27T00:23:17.634Z,8.1456
2023-04-27T00:24:25.693Z,8.5212
2023-04-27T00:25:33.739Z,8.2838
2023-04-27T00:26:41.999Z,8.3702
2023-04-27T00:27:50.051Z,8.2512
2023-04-27T00:28:58.098Z,8.1151
2023-04-27T00:30:06.158Z,8.0873
2023-04-27T00:31:14.158Z,8.2609
2023-04-27T00:32:22.283Z,8.1308
2023-04-27T00:33:30.352Z,8.1787
2023-04-27T00:34:38.342Z,7.9325
2023-04-27T00:35:46.423Z,7.9702
2023-04-27T00:36:54.477Z,8.2646
2023-04-27T00:38:02.409Z,7.6502
2023-04-27T00:39:10.523Z,7.8720
2023-04-27T00:40:18.554Z,7.9357
2023-04-27T00:41:27.062Z,7.8758
2023-04-27T00:42:34.805Z,7.8970
2023-04-27T00:43:43.078Z,8.4809
2023-04-27T00:44:50.966Z,8.4132
2023-04-27T00:45:58.996Z,8.5539
2023-04-27T00:47:07.260Z,8.5692
2023-04-27T00:48:15.103Z,8.5063
2023-04-27T00:49:23.211Z,8.4481
2023-04-27T00:50:31.301Z,7.8717
2023-04-27T00:51:39.295Z,8.7455
2023-04-27T00:52:47.265Z,8.6527
2023-04-27T00:53:55.326Z,8.4535
2023-04-27T00:55:03.391Z,8.6009
2023-04-27T00:56:11.856Z,8.8707
2023-04-27T00:57:19.606Z,8.6775
2023-04-27T00:58:27.726Z,8.2818
2023-04-27T00:59:35.767Z,8.5630
2023-04-27T01:00:43.824Z,8.8242
2023-04-27T01:01:51.918Z,8.8015
2023-04-27T01:03:00.056Z,8.8691
2023-04-27T01:04:08.267Z,8.9048
2023-04-27T01:05:16.068Z,8.3142
2023-04-27T01:06:24.112Z,8.7382
2023-04-27T01:07:32.109Z,8.9106
2023-04-27T01:08:40.154Z,8.5089
2023-04-27T01:09:48.217Z,8.1704
2023-04-27T01:10:56.346Z,8.4542
2023-04-27T01:12:04.621Z,8.6221
2023-04-27T01:13:12.658Z,8.0256
2023-04-27T01:14:20.572Z,8.3530
2023-04-27T01:15:28.695Z,8.0422
2023-04-27T01:16:36.802Z,8.2179
2023-04-27T01:17:44.792Z,8.0497
2023-04-27T01:18:53.028Z,8.4579
2023-04-27T01:20:00.905Z,8.2953
2023-04-27T01:21:08.966Z,7.9699
2023-04-27T01:22:16.901Z,8.1998
2023-04-27T01:23:25.002Z,8.7682
2023-04-27T01:24:33.072Z,8.5662
2023-04-27T01:25:41.232Z,8.5316
2023-04-27T01:26:49.361Z,8.3209
2023-04-27T01:27:57.493Z,8.8990
2023-04-27T01:29:05.422Z,9.2090
2023-04-27T01:30:13.492Z,9.3022
2023-04-27T01:31:21.593Z,8.6810
2023-04-27T01:32:29.631Z,8.7934
2023-04-27T01:33:37.670Z,8.6928
2023-04-27T01:34:45.748Z,8.5753
2023-04-27T01:35:53.954Z,8.5727
2023-04-27T01:37:01.743Z,8.8553
2023-04-27T01:38:09.817Z,8.3608
2023-04-27T01:39:17.878Z,8.8135
2023-04-27T01:40:26.125Z,9.1802
2023-04-27T01:41:34.175Z,9.0426
2023-04-27T01:42:42.451Z,8.9678
2023-04-27T01:43:50.370Z,9.6634
2023-04-27T01:44:58.321Z,9.2171
2023-04-27T01:46:06.399Z,9.0256
2023-04-27T01:47:14.473Z,8.5983
2023-04-27T01:48:22.465Z,8.2409
2023-04-27T01:49:30.604Z,8.5598
2023-04-27T01:50:38.661Z,8.3316
2023-04-27T01:51:46.548Z,8.1111
2023-04-27T01:52:54.661Z,8.5543
2023-04-27T01:54:02.662Z,8.9339
2023-04-27T01:55:11.030Z,8.6838
2023-04-27T01:56:18.934Z,8.9658
2023-04-27T01:57:27.076Z,8.6381
2023-04-27T01:58:35.133Z,8.3577
2023-04-27T01:59:43.235Z,9.2064
2023-04-27T02:00:51.204Z,9.0123
2023-04-27T02:01:59.289Z,8.5453
2023-04-27T02:03:07.483Z,8.8466
2023-04-27T02:04:15.719Z,8.6053
2023-04-27T02:05:23.322Z,9.0569
2023-04-27T02:06:31.407Z,9.1157
2023-04-27T02:07:39.462Z,9.3662
2023-04-27T02:08:47.773Z,8.9307
2023-04-27T02:09:55.797Z,9.2770
2023-04-27T02:11:03.762Z,8.8776
2023-04-27T02:12:11.946Z,9.0184
2023-04-27T02:13:19.888Z,9.1226
2023-04-27T02:14:27.971Z,9.4871
2023-04-27T02:15:36.152Z,8.6181
2023-04-27T02:16:44.113Z,8.9076
2023-04-27T02:17:52.192Z,8.5875
2023-04-27T02:19:00.215Z,9.0507
2023-04-27T02:20:08.153Z,9.1616
2023-04-27T02:21:16.245Z,9.2136
2023-04-27T02:22:24.271Z,8.8706
2023-04-27T02:23:32.449Z,9.1313
2023-04-27T02:24:40.640Z,8.9190
2023-04-27T02:25:48.580Z,9.1825
2023-04-27T02:26:56.849Z,8.8872
2023-04-27T02:28:04.692Z,9.2655
2023-04-27T02:29:13.060Z,9.2318
2023-04-27T02:30:20.889Z,9.3780
2023-04-27T02:31:29.056Z,9.0111
2023-04-27T02:32:36.997Z,8.7775
2023-04-27T02:33:44.997Z,9.3805
2023-04-27T02:34:52.959Z,9.2932
2023-04-27T02:36:01.008Z,8.9521
2023-04-27T02:37:09.033Z,9.4661
2023-04-27T02:38:17.299Z,9.3960
2023-04-27T02:39:25.309Z,9.3800
2023-04-27T02:40:33.504Z,9.7167
2023-04-27T02:41:41.457Z,9.3899
2023-04-27T02:42:49.522Z,8.9396
2023-04-27T02:43:57.606Z,8.8716
2023-04-27T02:45:05.675Z,8.9812
2023-04-27T02:46:13.740Z,9.1335
2023-04-27T02:47:21.762Z,8.8678
2023-04-27T02:48:29.926Z,8.7864
2023-04-27T02:49:38.176Z,8.4705
2023-04-27T02:50:45.793Z,8.8006
2023-04-27T02:51:53.863Z,9.2527
2023-04-27T02:53:02.082Z,9.0338
2023-04-27T02:54:10.143Z,8.5797
2023-04-27T02:55:18.257Z,8.1386
2023-04-27T02:56:26.425Z,8.6848
2023-04-27T02:57:34.305Z,8.9635
2023-04-27T02:58:42.393Z,8.6350
2023-04-27T02:59:50.459Z,8.4271
2023-04-27T03:00:58.561Z,8.6533
2023-04-27T03:02:06.587Z,7.8663
2023-04-27T03:03:14.905Z,8.6566
2023-04-27T03:04:22.624Z,8.4465
2023-04-27T03:05:30.630Z,8.4874
2023-04-27T03:06:38.707Z,8.5848
2023-04-27T03:07:46.934Z,8.2041
2023-04-27T03:08:54.955Z,7.9151
2023-04-27T03:10:02.969Z,7.3959
2023-04-27T03:11:11.113Z,7.1000
2023-04-27T03:12:19.300Z,7.6248
2023-04-27T03:13:27.198Z,7.4840
2023-04-27T03:14:35.252Z,8.0717
2023-04-27T03:15:43.549Z,7.4889
2023-04-27T03:16:51.511Z,8.5807
2023-04-27T03:17:59.521Z,8.2543
2023-04-27T03:19:07.385Z,8.3215
2023-04-27T03:20:15.440Z,8.2353
2023-04-27T03:21:23.476Z,7.7542
2023-04-27T03:22:31.748Z,7.8523
2023-04-27T03:23:39.775Z,7.8737
2023-04-27T03:24:47.841Z,8.4887
2023-04-27T03:25:55.916Z,8.1141
2023-04-27T03:27:03.904Z,8.1957
2023-04-27T03:28:12.126Z,8.1470
2023-04-27T03:29:20.095Z,8.1151
2023-04-27T03:30:28.134Z,8.4087
2023-04-27T03:31:36.236Z,7.8809
2023-04-27T03:32:47.039Z,8.3760
2023-04-27T03:33:57.063Z,8.6948
2023-04-27T03:35:05.134Z,9.4932
2023-04-27T03:36:13.165Z,9.2237
2023-04-27T03:37:21.345Z,10.3671
2023-04-27T03:38:29.421Z,11.0427
2023-04-27T03:39:37.484Z,10.5786
2023-04-27T03:40:45.582Z,11.0072
2023-04-27T03:41:53.668Z,11.0820
2023-04-27T03:43:01.685Z,10.8327
2023-04-27T03:44:09.852Z,10.8538
2023-04-27T03:45:17.782Z,10.5356
2023-04-27T03:46:25.979Z,9.0943
2023-04-27T03:47:33.977Z,8.9696
2023-04-27T03:48:41.829Z,10.1867
2023-04-27T03:49:49.914Z,9.6498
2023-04-27T03:50:58.056Z,9.0031
2023-04-27T03:52:06.208Z,9.1235
2023-04-27T03:53:14.225Z,9.5413
2023-04-27T03:54:22.245Z,8.7694
2023-04-27T03:55:30.353Z,8.7048
2023-04-27T03:56:38.481Z,9.7932
2023-04-27T03:57:46.586Z,9.8395
2023-04-27T03:58:54.591Z,10.4762
2023-04-27T04:00:02.687Z,10.2466
2023-04-27T04:01:11.116Z,10.2702
2023-04-27T04:02:18.709Z,10.1509
2023-04-27T04:03:26.958Z,10.3298
2023-04-27T04:04:34.953Z,10.1773
2023-04-27T04:05:42.911Z,10.4517
2023-04-27T04:06:51.025Z,10.1292
2023-04-27T04:07:59.039Z,10.5072
2023-04-27T04:09:07.285Z,10.7547
2023-04-27T04:10:15.161Z,10.2600
2023-04-27T04:11:23.264Z,10.5500
2023-04-27T04:12:31.314Z,10.2019
2023-04-27T04:13:39.422Z,10.6888
2023-04-27T04:14:47.535Z,10.6641
2023-04-27T04:15:55.658Z,11.0496
2023-04-27T04:17:03.449Z,10.9993
2023-04-27T04:18:11.555Z,10.9815
2023-04-27T04:19:20.760Z,11.1156
2023-04-27T04:20:32.677Z,11.0756
2023-04-27T04:21:40.683Z,10.8657
2023-04-27T04:22:48.777Z,11.1127
2023-04-27T04:23:56.845Z,10.5810
2023-04-27T04:25:04.962Z,11.2651
2023-04-27T04:26:12.974Z,10.9229
2023-04-27T04:27:20.988Z,10.8289
2023-04-27T04:28:29.015Z,10.4670
2023-04-27T04:29:37.082Z,9.9030
2023-04-27T04:30:45.019Z,9.1471
2023-04-27T04:31:53.176Z,9.1060
2023-04-27T04:33:01.177Z,9.5043
2023-04-27T04:34:09.342Z,10.2266
2023-04-27T04:35:17.392Z,9.9298
2023-04-27T04:36:25.428Z,10.3059
2023-04-27T04:37:33.537Z,10.1671
2023-04-27T04:38:41.583Z,10.7180
2023-04-27T04:39:49.655Z,11.0723
2023-04-27T04:40:57.833Z,11.0994
2023-04-27T04:42:05.810Z,11.2879
2023-04-27T04:43:13.801Z,11.2826
2023-04-27T04:44:21.865Z,10.9081
2023-04-27T04:45:29.812Z,11.6727
2023-04-27T04:46:37.947Z,11.5976
2023-04-27T04:47:45.938Z,11.7749
2023-04-27T04:48:54.847Z,11.6297
2023-04-27T04:50:02.418Z,11.7545
2023-04-27T04:51:10.216Z,11.9711
2023-04-27T04:52:18.438Z,11.9256
2023-04-27T04:53:26.280Z,11.5678
2023-04-27T04:54:34.414Z,11.5805
2023-04-27T04:55:42.475Z,10.6808
2023-04-27T04:56:50.632Z,10.4600
2023-04-27T04:57:58.622Z,10.9034
2023-04-27T04:59:06.571Z,10.6996
2023-04-27T05:00:14.603Z,11.1463
2023-04-27T05:01:22.673Z,10.4922
2023-04-27T05:02:30.756Z,11.0413
2023-04-27T05:03:38.960Z,10.6978
2023-04-27T05:04:47.143Z,10.7957
2023-04-27T05:05:55.113Z,10.8346
2023-04-27T05:07:03.090Z,10.6070
2023-04-27T05:08:11.062Z,10.7441
2023-04-27T05:09:19.178Z,10.3436
2023-04-27T05:10:27.194Z,10.1289
2023-04-27T05:11:35.353Z,10.2096
2023-04-27T05:12:43.356Z,10.4156
2023-04-27T05:13:51.477Z,10.0321
2023-04-27T05:14:59.338Z,9.8877
2023-04-27T05:16:07.468Z,9.9901
2023-04-27T05:17:15.493Z,10.3718
2023-04-27T05:18:23.633Z,9.8072
2023-04-27T05:19:31.776Z,10.7738
2023-04-27T05:20:39.735Z,11.3675
2023-04-27T05:21:47.987Z,11.4048
2023-04-27T05:22:55.889Z,10.9791
2023-04-27T05:24:03.927Z,10.7558
2023-04-27T05:25:12.097Z,10.1807
2023-04-27T05:26:20.045Z,10.7657
2023-04-27T05:27:28.096Z,10.7653
2023-04-27T05:28:36.177Z,10.6636
2023-04-27T05:29:44.103Z,11.1059
2023-04-27T05:30:52.201Z,11.5678
2023-04-27T05:32:00.357Z,11.6170
2023-04-27T05:33:08.449Z,11.3316
2023-04-27T05:34:16.597Z,11.3677
2023-04-27T05:35:24.569Z,11.6466
2023-04-27T05:36:32.609Z,11.5913
2023-04-27T05:37:40.572Z,11.3304
2023-04-27T05:38:48.693Z,11.3373
2023-04-27T05:39:56.813Z,11.0011
2023-04-27T05:41:04.826Z,10.7943
2023-04-27T05:42:12.867Z,10.9103
2023-04-27T05:43:20.963Z,11.0971
2023-04-27T05:44:28.911Z,11.6000
2023-04-27T05:45:37.005Z,11.3354
2023-04-27T05:46:45.013Z,11.0973
2023-04-27T05:47:53.232Z,11.3543
2023-04-27T05:49:01.361Z,11.3902
2023-04-27T05:50:09.353Z,11.4405
2023-04-27T05:51:17.394Z,11.3247
2023-04-27T05:52:25.375Z,12.0411
2023-04-27T05:53:33.496Z,11.7848
2023-04-27T05:54:41.487Z,11.2670
2023-04-27T05:55:49.682Z,11.1436
2023-04-27T05:56:57.704Z,10.7686
2023-04-27T05:58:08.963Z,10.9994
2023-04-27T05:59:18.470Z,11.4987
2023-04-27T06:00:26.554Z,11.8275
2023-04-27T06:01:34.588Z,11.9021
2023-04-27T06:02:42.956Z,11.7608
2023-04-27T06:03:50.924Z,10.9851
2023-04-27T06:04:59.086Z,11.1615
2023-04-27T06:06:06.904Z,11.3413
2023-04-27T06:07:16.153Z,12.0249
2023-04-27T06:08:23.112Z,11.7062
2023-04-27T06:09:31.069Z,11.9637
2023-04-27T06:10:39.108Z,12.2283
2023-04-27T06:11:47.233Z,11.4354
2023-04-27T06:12:55.347Z,11.7940
2023-04-27T06:14:03.255Z,11.3009
2023-04-27T06:15:11.287Z,10.7667
2023-04-27T06:16:19.449Z,11.6363
2023-04-27T06:17:27.508Z,11.7833
2023-04-27T06:18:35.559Z,11.9452
2023-04-27T06:19:43.646Z,12.2456
2023-04-27T06:20:51.790Z,12.7353
2023-04-27T06:21:59.709Z,12.3624
2023-04-27T06:23:07.789Z,11.6390
2023-04-27T06:24:15.848Z,11.6991
2023-04-27T06:25:27.074Z,12.1393
2023-04-27T06:26:36.862Z,12.3064
2023-04-27T06:27:44.788Z,12.1284
2023-04-27T06:28:52.847Z,12.0184
2023-04-27T06:30:01.043Z,12.1557
2023-04-27T06:31:09.109Z,11.9532
2023-04-27T06:32:17.081Z,12.5868
2023-04-27T06:33:25.109Z,12.4543
2023-04-27T06:34:33.174Z,12.4013
2023-04-27T06:35:41.250Z,11.5905
2023-04-27T06:36:49.338Z,11.3586
2023-04-27T06:37:57.471Z,12.2427
2023-04-27T06:39:05.409Z,12.0181
2023-04-27T06:40:13.485Z,11.9349
2023-04-27T06:41:21.659Z,12.3050
2023-04-27T06:42:29.588Z,12.9265
2023-04-27T06:43:37.569Z,12.1835
2023-04-27T06:44:45.705Z,11.6896
2023-04-27T06:45:53.906Z,12.2410
2023-04-27T06:47:01.848Z,12.0913
2023-04-27T06:48:10.012Z,12.0075
2023-04-27T06:49:17.939Z,12.1449
2023-04-27T06:50:26.027Z,12.3661
2023-04-27T06:51:34.120Z,12.4387
2023-04-27T06:52:42.320Z,12.1468
2023-04-27T06:53:50.258Z,12.3234
2023-04-27T06:54:58.278Z,12.8802
2023-04-27T06:56:06.309Z,12.6615
2023-04-27T06:57:14.310Z,12.3018
2023-04-27T06:58:22.359Z,12.1446
2023-04-27T06:59:30.412Z,12.8294
2023-04-27T07:00:38.518Z,12.5131
2023-04-27T07:01:46.561Z,12.2929
2023-04-27T07:02:54.673Z,13.2891
2023-04-27T07:04:02.780Z,13.1368
2023-04-27T07:05:10.721Z,13.8056
2023-04-27T07:06:18.833Z,12.7790
2023-04-27T07:07:26.909Z,12.9586
2023-04-27T07:08:35.034Z,12.9853
2023-04-27T07:09:43.113Z,13.2819
2023-04-27T07:10:51.136Z,13.6956
2023-04-27T07:11:59.226Z,13.6840
2023-04-27T07:13:09.119Z,13.6880
2023-04-27T07:14:20.077Z,13.6348
2023-04-27T07:15:28.154Z,14.2360
2023-04-27T07:16:36.274Z,13.8670
2023-04-27T07:17:44.261Z,13.2558
2023-04-27T07:18:52.336Z,13.0026
2023-04-27T07:20:00.376Z,13.5837
2023-04-27T07:21:08.549Z,13.5211
2023-04-27T07:22:16.518Z,12.3642
2023-04-27T07:23:24.569Z,13.1062
2023-04-27T07:24:32.690Z,13.3833
2023-04-27T07:25:40.563Z,13.0497
2023-04-27T07:26:48.654Z,13.2831
2023-04-27T07:27:56.704Z,12.2142
2023-04-27T07:29:14.439Z,12.9830
2023-04-27T07:30:17.910Z,11.7404
2023-04-27T07:31:26.301Z,12.0285
2023-04-27T07:32:33.983Z,11.6268
2023-04-27T07:33:42.006Z,11.7001
2023-04-27T07:34:54.082Z,12.7521
2023-04-27T07:36:02.922Z,11.6927
2023-04-27T07:37:11.027Z,12.4083
2023-04-27T07:38:18.976Z,12.6137
2023-04-27T07:39:27.057Z,13.1783
2023-04-27T07:40:35.059Z,12.0397
2023-04-27T07:41:43.223Z,13.2247
2023-04-27T07:42:51.289Z,12.4942
2023-04-27T07:43:59.395Z,11.8419
2023-04-27T07:45:07.514Z,12.3547
2023-04-27T07:46:15.459Z,12.0522
2023-04-27T07:47:23.574Z,12.1691
2023-04-27T07:48:31.544Z,11.7834
2023-04-27T07:49:39.642Z,11.3851
2023-04-27T07:50:47.646Z,11.0368
2023-04-27T07:51:55.782Z,10.6479
2023-04-27T07:53:03.791Z,11.0600
2023-04-27T07:54:11.774Z,10.8840
2023-04-27T07:55:19.859Z,11.1045
2023-04-27T07:56:28.055Z,10.9912
2023-04-27T07:57:36.139Z,11.5026
2023-04-27T07:58:44.076Z,11.0700
2023-04-27T07:59:52.184Z,11.1242
2023-04-27T08:01:00.194Z,10.7653
2023-04-27T08:02:19.113Z,9.8272
2023-04-27T08:03:21.231Z,9.2421
2023-04-27T08:04:29.406Z,9.6566
2023-04-27T08:05:37.490Z,9.6214
2023-04-27T08:06:45.880Z,10.4501
2023-04-27T08:07:53.990Z,10.2058
2023-04-27T08:09:01.550Z,11.0996
2023-04-27T08:10:09.589Z,11.6968
2023-04-27T08:11:17.629Z,12.0041
2023-04-27T08:12:25.639Z,11.4157
2023-04-27T08:13:33.893Z,11.6828
2023-04-27T08:14:41.753Z,12.0927
2023-04-27T08:15:49.825Z,11.8209
2023-04-27T08:16:58.027Z,11.7593
2023-04-27T08:18:05.991Z,11.5308
2023-04-27T08:19:14.207Z,11.8157
2023-04-27T08:20:21.937Z,12.0981
2023-04-27T08:21:29.989Z,12.8069
2023-04-27T08:22:38.063Z,12.7387
2023-04-27T08:23:46.106Z,12.2314
2023-04-27T08:24:54.211Z,12.7726
2023-04-27T08:26:02.311Z,12.5994
2023-04-27T08:27:10.264Z,12.8839
2023-04-27T08:28:18.428Z,12.7233
2023-04-27T08:29:28.813Z,12.8999
2023-04-27T08:30:39.482Z,12.8459
2023-04-27T08:31:47.529Z,12.2308
2023-04-27T08:32:55.559Z,12.2941
2023-04-27T08:34:03.449Z,12.1399
2023-04-27T08:35:11.546Z,10.7556
2023-04-27T08:36:19.584Z,10.4778
2023-04-27T08:37:27.753Z,9.8578
2023-04-27T08:38:35.842Z,10.1475
2023-04-27T08:39:43.804Z,10.2446
2023-04-27T08:40:51.897Z,10.1738
2023-04-27T08:42:00.014Z,10.2866
2023-04-27T08:43:08.008Z,10.8502
2023-04-27T08:44:16.107Z,10.2871
2023-04-27T08:45:24.115Z,9.7966
2023-04-27T08:46:32.163Z,10.1813
2023-04-27T08:47:43.421Z,10.8173
2023-04-27T08:48:53.059Z,11.1825
2023-04-27T08:50:01.121Z,10.7670
2023-04-27T08:51:09.121Z,11.2032
2023-04-27T08:52:17.356Z,10.8758
2023-04-27T08:53:25.404Z,10.7005
2023-04-27T08:54:33.313Z,11.6403
2023-04-27T08:55:41.496Z,11.6117
2023-04-27T08:56:49.519Z,11.4038
2023-04-27T08:57:57.590Z,11.8394
2023-04-27T08:59:05.661Z,12.3727
2023-04-27T09:00:13.711Z,12.1921
2023-04-27T09:01:21.944Z,11.6352
2023-04-27T09:02:30.036Z,11.5099
2023-04-27T09:03:37.995Z,11.7364
2023-04-27T09:04:45.909Z,12.5575
2023-04-27T09:06:04.369Z,12.0385
2023-04-27T09:07:06.897Z,11.8716
2023-04-27T09:08:14.975Z,11.6731
2023-04-27T09:09:23.008Z,12.0104
2023-04-27T09:10:31.283Z,11.9115
2023-04-27T09:11:39.165Z,12.4121
2023-04-27T09:12:47.222Z,11.9571
2023-04-27T09:13:55.225Z,12.1541
2023-04-27T09:15:03.308Z,11.7850
2023-04-27T09:16:11.523Z,11.8697
2023-04-27T09:17:19.339Z,11.6999
2023-04-27T09:18:27.321Z,11.8985
2023-04-27T09:19:35.406Z,11.3450
2023-04-27T09:20:43.552Z,11.6649
2023-04-27T09:21:51.714Z,11.4389
2023-04-27T09:22:59.871Z,11.0949
2023-04-27T09:24:07.744Z,11.0160
2023-04-27T09:25:15.779Z,11.0980
2023-04-27T09:26:23.795Z,11.2526
2023-04-27T09:27:31.824Z,11.2134
2023-04-27T09:28:39.944Z,11.2813
2023-04-27T09:29:48.192Z,10.9956
2023-04-27T09:30:56.055Z,11.3396
2023-04-27T09:32:04.181Z,10.9117
2023-04-27T09:33:12.081Z,10.7038
2023-04-27T09:34:20.122Z,9.6051
2023-04-27T09:35:28.358Z,9.8667
2023-04-27T09:36:36.226Z,10.2342
2023-04-27T09:37:44.426Z,9.6397
2023-04-27T09:38:52.490Z,8.4777
2023-04-27T09:40:00.449Z,8.7453
2023-04-27T09:41:08.594Z,9.0826
2023-04-27T09:42:16.515Z,9.1000
2023-04-27T09:43:24.633Z,8.9159
2023-04-27T09:44:32.917Z,8.1891
2023-04-27T09:45:40.856Z,8.1900
2023-04-27T09:46:48.743Z,8.3661
2023-04-27T09:47:56.887Z,8.0027
2023-04-27T09:49:04.843Z,7.7073
2023-04-27T09:50:12.916Z,7.3284
2023-04-27T09:51:21.071Z,7.2834
2023-04-27T09:52:29.186Z,7.4588
2023-04-27T09:53:37.077Z,7.4030
2023-04-27T09:54:45.234Z,6.7591
2023-04-27T09:55:53.435Z,6.7752
2023-04-27T09:57:01.347Z,6.5623
2023-04-27T09:58:09.375Z,6.4361
2023-04-27T09:59:17.449Z,6.1450
2023-04-27T10:00:25.469Z,6.5810
2023-04-27T10:01:35.274Z,7.0945
2023-04-27T10:02:53.068Z,6.6953
2023-04-27T10:03:59.443Z,6.1171
2023-04-27T10:05:07.364Z,5.7884
2023-04-27T10:06:15.471Z,6.0097
2023-04-27T10:07:23.566Z,5.5266
2023-04-27T10:08:31.891Z,5.4948
2023-04-27T10:09:39.670Z,5.4917
2023-04-27T10:10:47.698Z,5.1263
2023-04-27T10:11:55.727Z,4.7721
2023-04-27T10:13:03.883Z,4.3269
2023-04-27T10:14:11.790Z,3.8844
2023-04-27T10:15:19.836Z,3.6282
2023-04-27T10:16:27.909Z,3.9847
2023-04-27T10:17:36.116Z,3.8202
2023-04-27T10:18:44.052Z,3.6198
2023-04-27T10:19:54.305Z,3.5598
2023-04-27T10:21:05.024Z,3.8809
2023-04-27T10:22:13.166Z,3.7726
2023-04-27T10:23:21.361Z,3.5863
2023-04-27T10:24:29.227Z,3.4189
2023-04-27T10:25:37.323Z,3.5422
2023-04-27T10:26:45.299Z,3.0431
2023-04-27T10:27:53.370Z,3.2568
2023-04-27T10:29:01.324Z,3.3736
2023-04-27T10:30:09.405Z,2.9152
2023-04-27T10:31:17.603Z,2.6295
2023-04-27T10:32:25.683Z,2.8737
2023-04-27T10:33:33.639Z,3.1898
2023-04-27T10:34:41.662Z,3.0740
2023-04-27T10:35:49.856Z,3.0748
2023-04-27T10:36:57.788Z,2.9211
2023-04-27T10:38:05.845Z,2.8383
2023-04-27T10:39:14.217Z,2.8771
2023-04-27T10:40:21.988Z,2.7521
2023-04-27T10:41:30.099Z,2.9287
2023-04-27T10:42:37.974Z,3.0962
2023-04-27T10:43:46.035Z,2.9376
2023-04-27T10:44:54.106Z,2.6292
2023-04-27T10:46:02.346Z,2.6593
2023-04-27T10:47:10.297Z,2.6311
2023-04-27T10:48:18.270Z,2.5460
2023-04-27T10:49:26.441Z,2.5620
2023-04-27T10:50:34.607Z,2.7666
2023-04-27T10:51:42.592Z,2.6330
2023-04-27T10:52:50.636Z,2.5038
2023-04-27T10:53:58.632Z,2.9734
2023-04-27T10:55:06.679Z,2.8717
2023-04-27T10:56:14.741Z,2.7607
2023-04-27T10:57:22.712Z,2.9300
2023-04-27T10:58:41.421Z,2.9493
2023-04-27T10:59:43.960Z,3.3572
2023-04-27T11:00:51.749Z,3.5630
2023-04-27T11:01:59.884Z,3.2358
2023-04-27T11:03:08.037Z,3.5829
2023-04-27T11:04:16.478Z,3.4384
2023-04-27T11:05:24.058Z,3.4626
2023-04-27T11:06:32.194Z,3.4167
2023-04-27T11:07:40.182Z,3.3984
2023-04-27T11:08:48.231Z,3.6502
2023-04-27T11:09:56.284Z,3.9194
2023-04-27T11:11:04.241Z,3.5227
2023-04-27T11:12:12.289Z,3.5926
2023-04-27T11:13:20.393Z,3.4864
2023-04-27T11:14:28.498Z,3.3256
2023-04-27T11:15:36.624Z,3.6047
2023-04-27T11:16:44.687Z,3.6659
2023-04-27T11:17:52.729Z,3.4572
2023-04-27T11:19:00.718Z,3.5205
2023-04-27T11:20:08.801Z,3.8112
2023-04-27T11:21:16.904Z,3.6767
2023-04-27T11:22:24.880Z,3.9887
2023-04-27T11:23:33.060Z,3.8545
2023-04-27T11:24:40.999Z,3.8990
2023-04-27T11:25:48.978Z,3.4162
2023-04-27T11:26:57.074Z,3.9277
2023-04-27T11:28:05.116Z,4.1430
2023-04-27T11:29:13.653Z,3.6271
2023-04-27T11:30:21.311Z,3.9789
2023-04-27T11:31:29.402Z,3.7013
2023-04-27T11:32:37.566Z,3.9068
2023-04-27T11:33:45.457Z,3.9946
2023-04-27T11:34:54.657Z,4.2578
2023-04-27T11:36:06.432Z,3.9995
2023-04-27T11:37:18.429Z,4.0192
2023-04-27T11:38:27.487Z,4.0095
2023-04-27T11:39:35.382Z,3.5878
2023-04-27T11:40:43.435Z,3.2010
2023-04-27T11:41:51.630Z,2.7487
2023-04-27T11:42:59.675Z,2.7110
2023-04-27T11:44:07.758Z,2.5690
2023-04-27T11:45:15.787Z,2.8640
2023-04-27T11:46:23.839Z,2.8551
2023-04-27T11:47:31.935Z,2.8490
2023-04-27T11:48:39.921Z,2.7462
2023-04-27T11:49:47.998Z,2.7380
2023-04-27T11:50:56.110Z,2.5640
2023-04-27T11:52:04.093Z,2.4843
2023-04-27T11:53:12.034Z,2.3856
2023-04-27T11:54:20.082Z,2.8436
2023-04-27T11:55:28.189Z,2.7773
2023-04-27T11:56:36.470Z,2.6765
2023-04-27T11:57:44.401Z,2.5566
2023-04-27T11:58:52.314Z,2.4356
2023-04-27T12:00:00.646Z,2.2645
2023-04-27T12:01:08.587Z,2.3068
2023-04-27T12:02:16.620Z,2.1516
2023-04-27T12:03:24.984Z,2.4979
2023-04-27T12:04:32.907Z,2.0060
2023-04-27T12:05:40.954Z,2.1582
2023-04-27T12:06:48.855Z,1.9899
2023-04-27T12:07:56.877Z,2.2861
2023-04-27T12:09:04.986Z,2.6578
2023-04-27T12:10:12.879Z,2.8652
2023-04-27T12:11:20.965Z,2.7809
2023-04-27T12:12:29.034Z,2.5919
2023-04-27T12:13:37.186Z,2.6899
2023-04-27T12:14:45.352Z,2.4069
2023-04-27T12:15:53.572Z,3.0846
2023-04-27T12:17:01.473Z,3.6657
2023-04-27T12:18:09.602Z,3.3613
2023-04-27T12:19:17.640Z,3.8847
2023-04-27T12:20:25.718Z,4.0387
2023-04-27T12:21:33.611Z,3.3510
2023-04-27T12:22:41.717Z,3.8915
2023-04-27T12:23:49.863Z,3.7816
2023-04-27T12:24:57.734Z,3.7315
2023-04-27T12:26:05.806Z,4.1159
2023-04-27T12:27:13.858Z,3.7171
2023-04-27T12:28:22.003Z,3.8722
2023-04-27T12:29:29.998Z,3.7066
2023-04-27T12:30:38.156Z,3.2318
2023-04-27T12:31:46.256Z,2.9363
2023-04-27T12:32:54.416Z,3.2805
2023-04-27T12:34:02.304Z,3.1417
2023-04-27T12:35:10.494Z,3.4223
2023-04-27T12:36:18.567Z,3.0364
2023-04-27T12:37:27.146Z,2.6088
2023-04-27T12:38:34.440Z,2.7996
2023-04-27T12:39:42.516Z,3.0384
2023-04-27T12:40:50.608Z,3.2207
2023-04-27T12:41:58.806Z,3.2228
2023-04-27T12:43:06.734Z,3.3973
2023-04-27T12:44:15.068Z,3.3613
2023-04-27T12:45:22.905Z,3.3416
2023-04-27T12:46:30.995Z,2.7832
2023-04-27T12:47:58.345Z,3.0825
2023-04-27T12:48:51.985Z,3.4970
2023-04-27T12:50:00.013Z,3.1686
2023-04-27T12:51:08.242Z,3.4504
2023-04-27T12:52:16.132Z,3.3459
2023-04-27T12:53:24.150Z,3.2055
2023-04-27T12:54:32.240Z,3.0849
2023-04-27T12:55:40.433Z,2.7455
2023-04-27T12:56:48.385Z,2.6740
2023-04-27T12:57:56.545Z,2.5119
2023-04-27T12:59:04.604Z,2.5851
2023-04-27T13:00:12.690Z,2.8749
2023-04-27T13:01:20.634Z,2.8144
2023-04-27T13:02:28.938Z,2.8490
2023-04-27T13:03:37.095Z,2.8713
2023-04-27T13:04:45.055Z,2.7579
2023-04-27T13:05:53.028Z,2.8294
2023-04-27T13:07:00.938Z,2.9502
2023-04-27T13:08:08.997Z,2.5913
2023-04-27T13:09:17.099Z,2.5806
2023-04-27T13:10:25.226Z,2.5262
2023-04-27T13:11:33.282Z,2.5672
2023-04-27T13:12:41.608Z,2.6303
2023-04-27T13:13:49.411Z,3.2186
2023-04-27T13:14:57.547Z,3.0218
2023-04-27T13:16:05.598Z,3.1605
2023-04-27T13:17:13.627Z,2.7034
2023-04-27T13:18:21.663Z,2.7776
2023-04-27T13:19:29.725Z,2.9830
2023-04-27T13:20:38.002Z,2.6264
2023-04-27T13:21:45.709Z,2.5357
2023-04-27T13:22:53.773Z,2.6842
2023-04-27T13:24:01.841Z,2.8963
2023-04-27T13:25:10.020Z,2.6197
2023-04-27T13:26:17.968Z,2.7897
2023-04-27T13:27:26.421Z,2.7650
2023-04-27T13:28:34.161Z,2.5958
2023-04-27T13:29:42.249Z,2.5548
2023-04-27T13:30:50.251Z,2.7535
2023-04-27T13:31:58.384Z,2.7395
2023-04-27T13:33:21.096Z,2.6188
2023-04-27T13:34:19.322Z,2.4477
2023-04-27T13:35:27.413Z,2.7000
2023-04-27T13:36:35.306Z,2.6813
2023-04-27T13:37:43.402Z,2.7528
2023-04-27T13:38:51.444Z,2.8234
2023-04-27T13:39:59.634Z,2.4438
2023-04-27T13:41:07.664Z,2.3226
2023-04-27T13:42:15.701Z,2.1428
2023-04-27T13:43:23.806Z,2.1923
2023-04-27T13:44:31.972Z,2.0367
2023-04-27T13:45:39.947Z,2.0317
2023-04-27T13:46:48.059Z,2.1624
2023-04-27T13:47:56.040Z,2.3152
2023-04-27T13:49:04.108Z,2.3457
2023-04-27T13:50:12.176Z,2.4348
2023-04-27T13:51:20.144Z,2.6690
2023-04-27T13:52:28.174Z,2.5755
2023-04-27T13:53:36.278Z,2.4495
2023-04-27T13:54:44.654Z,2.1683
2023-04-27T13:55:52.488Z,2.0019
2023-04-27T13:57:00.612Z,2.0037
2023-04-27T13:58:08.680Z,1.9986
2023-04-27T13:59:16.825Z,2.4160
2023-04-27T14:00:24.841Z,3.9821